KNBG/NBG METAR and TAF weather

Enter ICAO airport designator
Station Type Date Time Source
KNBG METAR 2021/05/15 00:55 UTC NOAA

KNBG 150055Z 13006KT 10SM CLR 22/16 A3017 RMK AO2 SLP214 T02220156 $


Station Type Date Time Source
KNBG Decoded METAR 2021/05/15 00:55 UTC NOAA

NEW ORLEANS NAVAL AIR STN, LA, United States (KNBG) 29-50N 90-01W
May 14, 2021 - 08:55 PM EDT / 2021.05.15 0055 UTC
Wind: from the SE (130 degrees) at 7 MPH (6 KT):0
Visibility: 10 mile(s):0
Sky conditions: clear
Temperature: 72.0 F (22.2 C)
Dew Point: 60.1 F (15.6 C)
Relative Humidity: 66%
Pressure (altimeter): 30.17 in. Hg (1021 hPa)
ob: KNBG 150055Z 13006KT 10SM CLR 22/16 A3017 RMK AO2 SLP214 T02220156
cycle: 1

Station Type Date Time Source
KNBG TAF 2021/05/14 23:19 UTC NOAA

TAF KNBG 1423/1523 09010KT 9999 SCT050 SCT250 QNH3012INS
BECMG 1505/1507 11006KT 9999 FEW030 SCT250 QNH3015INS
BECMG 1513/1515 09012KT 9999 SCT045 SCT250 QNH3011INS AUTOMATED SENSOR METWATCH 1504 TIL 1510 T16/1512Z T26/1519Z FN00238

Example: see airport list